createdAt,value
2023-03-15T00:00:55.648Z,12.25
2023-03-15T00:03:24.430Z,12.50
2023-03-15T00:05:52.277Z,12.20
2023-03-15T00:08:19.047Z,11.52
2023-03-15T00:10:46.705Z,10.98
2023-03-15T00:13:14.697Z,11.40
2023-03-15T00:15:49.672Z,10.93
2023-03-15T00:18:17.774Z,10.90
2023-03-15T00:20:44.432Z,10.30
2023-03-15T00:23:10.941Z,10.70
2023-03-15T00:25:37.674Z,10.55
2023-03-15T00:28:04.348Z,10.95
2023-03-15T00:30:30.752Z,11.85
2023-03-15T00:32:57.248Z,11.23
2023-03-15T00:35:23.987Z,11.60
2023-03-15T00:37:54.743Z,11.88
2023-03-15T00:40:21.150Z,11.85
2023-03-15T00:42:50.412Z,12.73
2023-03-15T00:45:19.031Z,12.95
2023-03-15T00:47:45.678Z,13.70
2023-03-15T00:50:12.243Z,12.55
2023-03-15T00:52:38.929Z,13.93
2023-03-15T00:55:05.696Z,13.80
2023-03-15T00:57:35.273Z,13.35
2023-03-15T01:00:08.614Z,14.43
2023-03-15T01:02:37.225Z,14.07
2023-03-15T01:05:08.623Z,13.48
2023-03-15T01:07:37.857Z,15.15
2023-03-15T01:10:06.437Z,16.20
2023-03-15T01:12:34.044Z,15.35
2023-03-15T01:15:04.337Z,16.73
2023-03-15T01:17:30.789Z,17.83
2023-03-15T01:19:59.053Z,17.67
2023-03-15T01:22:26.344Z,17.27
2023-03-15T01:24:52.854Z,16.00
2023-03-15T01:27:19.406Z,17.25
2023-03-15T01:29:45.809Z,18.02
2023-03-15T01:32:15.089Z,16.10
2023-03-15T01:34:43.125Z,17.77
2023-03-15T01:37:10.465Z,19.73
2023-03-15T01:39:36.813Z,20.77
2023-03-15T01:42:03.337Z,22.75
2023-03-15T01:44:50.759Z,25.15
2023-03-15T01:47:17.336Z,27.42
2023-03-15T01:49:47.989Z,27.40
2023-03-15T01:52:20.251Z,29.92
2023-03-15T01:54:57.532Z,29.98
2023-03-15T01:57:30.701Z,28.42
2023-03-15T02:00:10.573Z,28.70
2023-03-15T02:02:46.474Z,27.60
2023-03-15T02:05:23.032Z,27.25
2023-03-15T02:07:51.004Z,30.95
2023-03-15T02:10:25.737Z,31.60
2023-03-15T02:12:56.261Z,34.78
2023-03-15T02:15:22.860Z,37.38
2023-03-15T02:17:50.534Z,35.88
2023-03-15T02:20:31.582Z,35.33
2023-03-15T02:23:01.232Z,35.83
2023-03-15T02:26:02.164Z,33.22
2023-03-15T02:28:29.670Z,35.25
2023-03-15T02:30:59.886Z,39.50
2023-03-15T02:33:33.654Z,38.33
2023-03-15T02:36:18.618Z,38.00
2023-03-15T02:38:45.148Z,35.88
2023-03-15T02:41:13.478Z,37.97
2023-03-15T02:43:42.057Z,36.60
2023-03-15T02:46:12.500Z,37.28
2023-03-15T02:48:41.108Z,36.60
2023-03-15T02:51:07.563Z,36.92
2023-03-15T02:53:34.211Z,38.78
2023-03-15T02:56:00.669Z,35.00
2023-03-15T02:58:27.214Z,33.70
2023-03-15T03:00:54.020Z,35.97
2023-03-15T03:03:21.110Z,34.33
2023-03-15T03:05:53.618Z,34.72
2023-03-15T03:08:20.174Z,38.90
2023-03-15T03:10:46.728Z,33.60
2023-03-15T03:13:13.260Z,34.58
2023-03-15T03:15:39.695Z,35.33
2023-03-15T03:18:09.327Z,34.60
2023-03-15T03:20:35.782Z,34.38
2023-03-15T03:23:06.194Z,32.67
2023-03-15T03:25:33.696Z,36.05
2023-03-15T03:28:03.983Z,33.10
2023-03-15T03:30:31.151Z,33.53
2023-03-15T03:32:57.797Z,33.42
2023-03-15T03:35:24.164Z,34.72
2023-03-15T03:37:53.749Z,33.15
2023-03-15T03:40:20.392Z,32.63
2023-03-15T03:42:46.812Z,29.85
2023-03-15T03:45:13.215Z,29.60
2023-03-15T03:47:39.687Z,31.67
2023-03-15T03:50:07.714Z,27.67
2023-03-15T03:52:34.164Z,27.38
2023-03-15T03:55:00.594Z,28.08
2023-03-15T03:57:27.083Z,25.63
2023-03-15T03:59:53.567Z,28.60
2023-03-15T04:02:20.196Z,28.58
2023-03-15T04:04:50.236Z,30.05
2023-03-15T04:07:19.170Z,27.05
2023-03-15T04:09:45.580Z,27.95
2023-03-15T04:12:12.301Z,27.45
2023-03-15T04:14:38.730Z,30.90
2023-03-15T04:17:05.238Z,30.83
2023-03-15T04:19:31.738Z,30.25
2023-03-15T04:21:58.094Z,30.98
2023-03-15T04:24:24.526Z,32.60
2023-03-15T04:26:50.931Z,34.60
2023-03-15T04:29:17.288Z,33.50
2023-03-15T04:31:43.772Z,34.55
2023-03-15T04:34:10.330Z,33.05
2023-03-15T04:36:39.206Z,35.95
2023-03-15T04:39:07.626Z,37.83
2023-03-15T04:41:34.849Z,34.50
2023-03-15T04:44:03.544Z,38.20
2023-03-15T04:46:31.780Z,39.88
2023-03-15T04:48:58.784Z,36.88
2023-03-15T04:51:25.238Z,35.35
2023-03-15T04:53:51.781Z,39.13
2023-03-15T04:56:20.958Z,37.22
2023-03-15T04:58:50.164Z,37.40
2023-03-15T05:01:16.972Z,37.92
2023-03-15T05:03:43.511Z,42.10
2023-03-15T05:06:10.158Z,39.15
2023-03-15T05:08:37.275Z,38.60
2023-03-15T05:11:18.648Z,40.72
2023-03-15T05:13:45.353Z,38.97
2023-03-15T05:16:12.310Z,37.53
2023-03-15T05:18:38.831Z,40.05
2023-03-15T05:21:06.134Z,40.10
2023-03-15T05:23:33.990Z,40.70
2023-03-15T05:26:03.764Z,41.00
2023-03-15T05:28:32.916Z,41.30
2023-03-15T05:31:00.627Z,42.20
2023-03-15T05:33:27.261Z,41.67
2023-03-15T05:35:56.984Z,40.15
2023-03-15T05:38:35.878Z,40.67
2023-03-15T05:41:02.321Z,43.55
2023-03-15T05:43:36.639Z,41.25
2023-03-15T05:46:05.931Z,42.95
2023-03-15T05:49:35.317Z,44.95
2023-03-15T05:52:01.826Z,38.38
2023-03-15T05:54:30.381Z,41.55
2023-03-15T05:57:08.385Z,42.97
2023-03-15T05:59:39.999Z,40.58
2023-03-15T06:02:09.235Z,42.78
2023-03-15T06:04:39.315Z,42.00
2023-03-15T06:07:20.758Z,39.58
2023-03-15T06:09:47.410Z,40.63
2023-03-15T06:12:15.160Z,41.72
2023-03-15T06:14:50.959Z,40.72
2023-03-15T06:17:23.675Z,39.10
2023-03-15T06:19:50.522Z,38.92
2023-03-15T06:22:22.962Z,40.70
2023-03-15T06:24:49.640Z,41.10
2023-03-15T06:27:22.324Z,42.42
2023-03-15T06:29:53.064Z,40.45
2023-03-15T06:32:22.640Z,40.92
2023-03-15T06:34:52.571Z,38.72
2023-03-15T06:37:28.981Z,39.33
2023-03-15T06:40:03.161Z,38.92
2023-03-15T06:42:29.732Z,38.45
2023-03-15T06:44:56.354Z,38.88
2023-03-15T06:47:22.999Z,39.40
2023-03-15T06:49:51.759Z,42.85
2023-03-15T06:52:18.913Z,39.83
2023-03-15T06:54:45.491Z,43.20
2023-03-15T06:57:14.814Z,41.03
2023-03-15T06:59:59.738Z,42.90
2023-03-15T07:02:26.927Z,39.60
2023-03-15T07:04:53.570Z,42.03
2023-03-15T07:07:20.107Z,43.20
2023-03-15T07:09:46.720Z,41.63
2023-03-15T07:12:13.471Z,42.08
2023-03-15T07:14:39.836Z,39.85
2023-03-15T07:17:06.349Z,41.30
2023-03-15T07:19:32.716Z,42.75
2023-03-15T07:22:03.123Z,39.65
2023-03-15T07:24:30.552Z,40.25
2023-03-15T07:26:57.125Z,40.08
2023-03-15T07:29:24.645Z,40.85
2023-03-15T07:31:51.932Z,39.42
2023-03-15T07:34:19.188Z,40.65
2023-03-15T07:36:45.656Z,43.72
2023-03-15T07:39:12.112Z,40.53
2023-03-15T07:41:38.739Z,39.47
2023-03-15T07:44:05.839Z,42.30
2023-03-15T07:46:40.159Z,40.72
2023-03-15T07:49:06.748Z,39.95
2023-03-15T07:51:33.264Z,40.30
2023-03-15T07:53:59.806Z,42.08
2023-03-15T07:56:26.211Z,40.95
2023-03-15T07:58:52.619Z,38.75
2023-03-15T08:01:19.096Z,37.83
2023-03-15T08:03:45.504Z,37.30
2023-03-15T08:06:11.892Z,33.92
2023-03-15T08:08:38.353Z,34.45
2023-03-15T08:11:05.966Z,37.92
2023-03-15T08:13:32.623Z,36.38
2023-03-15T08:15:59.525Z,34.53
2023-03-15T08:18:31.634Z,33.75
2023-03-15T08:20:59.123Z,31.95
2023-03-15T08:23:25.733Z,33.00
2023-03-15T08:25:52.100Z,31.30
2023-03-15T08:28:18.576Z,31.73
2023-03-15T08:30:44.945Z,29.35
2023-03-15T08:33:12.455Z,28.45
2023-03-15T08:35:39.146Z,30.05
2023-03-15T08:38:05.624Z,28.52
2023-03-15T08:40:34.331Z,26.73
2023-03-15T08:43:00.720Z,27.20
2023-03-15T08:45:27.640Z,24.90
2023-03-15T08:47:58.143Z,23.02
2023-03-15T08:50:25.679Z,21.80
2023-03-15T08:52:52.386Z,22.17
2023-03-15T08:55:19.324Z,22.13
2023-03-15T08:57:46.476Z,19.50
2023-03-15T09:00:23.274Z,17.60
2023-03-15T09:02:51.943Z,18.48
2023-03-15T09:05:20.628Z,17.10
2023-03-15T09:07:48.213Z,17.02
2023-03-15T09:10:16.771Z,17.38
2023-03-15T09:12:46.032Z,18.45
2023-03-15T09:15:13.170Z,17.30
2023-03-15T09:17:40.574Z,15.57
2023-03-15T09:20:14.809Z,16.88
2023-03-15T09:25:09.583Z,13.68
2023-03-15T09:27:36.838Z,16.02
2023-03-15T09:30:03.953Z,16.00
2023-03-15T09:32:36.202Z,15.40
2023-03-15T09:35:11.350Z,14.32
2023-03-15T09:37:37.841Z,13.57
2023-03-15T09:40:05.058Z,13.55
2023-03-15T09:42:59.555Z,13.65
2023-03-15T09:45:48.589Z,16.25
2023-03-15T09:48:26.121Z,13.98
2023-03-15T09:51:05.635Z,11.10
2023-03-15T09:54:09.020Z,9.23
2023-03-15T09:56:59.885Z,7.75
2023-03-15T09:59:34.194Z,7.03
2023-03-15T10:02:25.503Z,7.00
2023-03-15T10:04:58.689Z,7.05
2023-03-15T10:07:26.207Z,7.38
2023-03-15T10:10:03.949Z,6.63
2023-03-15T10:12:41.346Z,6.57
2023-03-15T10:15:26.243Z,6.78
2023-03-15T10:17:55.755Z,7.55
2023-03-15T10:20:26.441Z,7.18
2023-03-15T10:23:03.235Z,6.25
2023-03-15T10:25:31.234Z,6.13
2023-03-15T10:28:08.342Z,5.85
2023-03-15T10:30:37.569Z,7.35
2023-03-15T10:33:23.740Z,6.45
2023-03-15T10:35:52.456Z,6.15
2023-03-15T10:38:24.120Z,6.10
2023-03-15T10:40:57.209Z,7.45
2023-03-15T10:43:23.608Z,6.03
2023-03-15T10:46:10.150Z,4.63
2023-03-15T10:48:51.891Z,5.97
2023-03-15T10:51:25.229Z,5.38
2023-03-15T10:54:13.262Z,4.90
2023-03-15T10:56:50.119Z,4.10
2023-03-15T10:59:20.066Z,5.05
2023-03-15T11:01:48.643Z,4.53
2023-03-15T11:04:33.109Z,4.60
2023-03-15T11:07:07.705Z,4.78
2023-03-15T11:09:45.539Z,4.50
2023-03-15T11:12:26.504Z,4.00
2023-03-15T11:15:07.635Z,4.20
2023-03-15T11:17:46.969Z,3.95
2023-03-15T11:20:26.369Z,4.93
2023-03-15T11:22:54.505Z,4.53
2023-03-15T11:25:25.250Z,4.90
2023-03-15T11:27:53.591Z,4.60
2023-03-15T11:30:28.449Z,4.82
2023-03-15T11:32:55.535Z,4.32
2023-03-15T11:35:40.965Z,4.40
2023-03-15T11:38:25.896Z,4.85
2023-03-15T11:40:58.678Z,4.38
2023-03-15T11:43:31.259Z,4.40
2023-03-15T11:46:05.983Z,5.18
2023-03-15T11:48:47.193Z,5.57
2023-03-15T11:51:14.270Z,4.85
2023-03-15T11:53:52.902Z,4.10
2023-03-15T11:56:58.086Z,3.90
2023-03-15T11:59:30.490Z,3.90
2023-03-15T12:02:16.306Z,4.20
2023-03-15T12:04:45.708Z,4.50
2023-03-15T12:07:15.118Z,4.65
2023-03-15T12:10:18.268Z,4.60
2023-03-15T12:12:47.346Z,4.57
2023-03-15T12:15:22.430Z,4.25
2023-03-15T12:18:02.068Z,4.30
2023-03-15T12:20:48.684Z,4.10
2023-03-15T12:23:32.850Z,4.25
2023-03-15T12:26:06.568Z,4.88
2023-03-15T12:28:41.949Z,5.07
2023-03-15T12:31:14.700Z,3.83
2023-03-15T12:33:53.986Z,4.00
2023-03-15T12:36:32.923Z,4.28
2023-03-15T12:39:04.327Z,4.28
2023-03-15T12:41:37.508Z,4.13
2023-03-15T12:44:36.009Z,4.35
2023-03-15T12:47:04.456Z,4.10
2023-03-15T12:49:38.655Z,4.80
2023-03-15T12:52:11.211Z,3.70
2023-03-15T12:54:55.070Z,4.60
2023-03-15T12:57:24.762Z,3.72
2023-03-15T12:59:55.551Z,3.58
2023-03-15T13:02:42.852Z,3.85
2023-03-15T13:05:09.885Z,4.07
2023-03-15T13:08:18.115Z,4.25
2023-03-15T13:11:11.152Z,4.43
2023-03-15T13:14:08.270Z,3.45
2023-03-15T13:16:56.547Z,3.22
2023-03-15T13:19:27.397Z,3.30
2023-03-15T13:22:07.588Z,3.60
2023-03-15T13:24:36.730Z,3.85
2023-03-15T13:27:35.812Z,4.05
2023-03-15T13:30:29.671Z,3.60
2023-03-15T13:33:10.975Z,3.83
2023-03-15T13:35:53.372Z,3.15
2023-03-15T13:38:26.291Z,3.20
2023-03-15T13:40:54.199Z,3.28
2023-03-15T13:43:24.954Z,3.30
2023-03-15T13:45:53.666Z,3.63
2023-03-15T13:48:20.113Z,3.50
2023-03-15T13:50:50.457Z,3.65
2023-03-15T13:53:39.547Z,3.88
2023-03-15T13:56:17.986Z,3.90
2023-03-15T13:58:45.035Z,3.70
2023-03-15T14:01:12.989Z,3.33
2023-03-15T14:03:43.661Z,3.97
2023-03-15T14:06:20.646Z,3.40
2023-03-15T14:08:48.568Z,3.55
2023-03-15T14:11:25.401Z,4.47
2023-03-15T14:13:59.273Z,4.10
2023-03-15T14:17:02.885Z,3.95
2023-03-15T14:19:36.649Z,3.88
2023-03-15T14:22:16.075Z,3.42
2023-03-15T14:24:46.500Z,3.70
2023-03-15T14:27:22.383Z,3.58
2023-03-15T14:29:51.385Z,4.13
2023-03-15T14:32:23.703Z,3.72
2023-03-15T14:34:50.074Z,3.60
2023-03-15T14:37:35.629Z,3.83
2023-03-15T14:40:16.541Z,3.78
2023-03-15T14:42:44.118Z,4.43
2023-03-15T14:45:10.982Z,4.20
2023-03-15T14:47:55.115Z,4.07
2023-03-15T14:50:24.654Z,3.70
2023-03-15T14:52:51.338Z,3.42
2023-03-15T14:55:29.384Z,3.58
2023-03-15T14:57:55.860Z,3.55
2023-03-15T15:00:22.542Z,3.67
2023-03-15T15:02:53.368Z,4.18
2023-03-15T15:05:32.027Z,3.80
2023-03-15T15:08:22.110Z,4.22
2023-03-15T15:10:50.407Z,3.83
2023-03-15T15:13:23.167Z,4.70
2023-03-15T15:15:55.726Z,3.85
2023-03-15T15:18:25.069Z,3.58
2023-03-15T15:20:55.237Z,3.42
2023-03-15T15:23:30.528Z,3.65
2023-03-15T15:26:00.215Z,3.55
2023-03-15T15:28:35.292Z,3.50
2023-03-15T15:31:04.028Z,3.90
2023-03-15T15:33:32.632Z,4.00
2023-03-15T15:35:59.144Z,3.70
2023-03-15T15:38:38.155Z,3.53
2023-03-15T15:41:05.115Z,3.78
2023-03-15T15:43:33.572Z,4.03
2023-03-15T15:46:00.251Z,4.55
2023-03-15T15:48:26.797Z,3.88
2023-03-15T15:50:53.158Z,3.95
2023-03-15T15:53:19.557Z,3.60
2023-03-15T15:55:46.363Z,3.60
2023-03-15T15:58:14.033Z,3.47
2023-03-15T16:00:40.589Z,3.65
2023-03-15T16:03:16.119Z,3.45
2023-03-15T16:05:43.544Z,3.42
2023-03-15T16:08:20.945Z,3.35
2023-03-15T16:10:47.301Z,4.53
2023-03-15T16:13:13.712Z,5.43
2023-03-15T16:15:40.174Z,3.70
2023-03-15T16:18:11.017Z,3.60
2023-03-15T16:20:39.360Z,4.00
2023-03-15T16:23:06.299Z,3.45
2023-03-15T16:25:36.132Z,5.10
2023-03-15T16:28:04.441Z,3.60
2023-03-15T16:30:32.382Z,3.88
2023-03-15T16:32:59.127Z,3.85
2023-03-15T16:35:35.848Z,3.83
2023-03-15T16:38:06.099Z,3.90
2023-03-15T16:40:34.495Z,4.97
2023-03-15T16:43:01.268Z,4.20
2023-03-15T16:45:27.900Z,4.57
2023-03-15T16:47:56.243Z,4.07
2023-03-15T16:50:24.113Z,3.88
2023-03-15T16:52:54.663Z,4.53
2023-03-15T16:55:27.025Z,4.05
2023-03-15T16:57:53.547Z,4.50
2023-03-15T17:00:20.724Z,5.20
2023-03-15T17:02:54.785Z,4.40
2023-03-15T17:05:21.702Z,4.90
2023-03-15T17:07:50.109Z,4.40
2023-03-15T17:10:23.067Z,5.30
2023-03-15T17:12:51.300Z,5.07
2023-03-15T17:15:20.357Z,5.40
2023-03-15T17:17:48.322Z,5.05
2023-03-15T17:20:21.427Z,4.88
2023-03-15T17:22:52.766Z,4.45
2023-03-15T17:25:19.585Z,4.47
2023-03-15T17:27:47.475Z,4.20
2023-03-15T17:30:28.928Z,4.10
2023-03-15T17:32:55.720Z,3.83
2023-03-15T17:35:26.770Z,4.10
2023-03-15T17:37:53.495Z,4.50
2023-03-15T17:40:24.446Z,4.63
2023-03-15T17:42:51.993Z,4.60
2023-03-15T17:45:24.191Z,4.35
2023-03-15T17:47:51.885Z,4.07
2023-03-15T17:50:18.964Z,4.00
2023-03-15T17:52:48.093Z,4.90
2023-03-15T17:55:19.901Z,5.18
2023-03-15T17:57:54.645Z,5.80
2023-03-15T18:00:23.553Z,5.57
2023-03-15T18:02:58.819Z,5.78
2023-03-15T18:05:27.059Z,5.18
2023-03-15T18:07:59.125Z,4.70
2023-03-15T18:10:33.483Z,5.07
2023-03-15T18:12:59.953Z,5.07
2023-03-15T18:15:26.349Z,5.75
2023-03-15T18:17:52.764Z,5.05
2023-03-15T18:20:22.129Z,5.30
2023-03-15T18:22:48.909Z,4.50
2023-03-15T18:25:20.578Z,4.78
2023-03-15T18:27:47.727Z,5.43
2023-03-15T18:30:18.192Z,4.97
2023-03-15T18:32:44.984Z,4.78
2023-03-15T18:35:21.104Z,4.88
2023-03-15T18:37:47.619Z,5.45
2023-03-15T18:40:17.183Z,5.28
2023-03-15T18:42:44.203Z,5.28
2023-03-15T18:45:20.738Z,6.05
2023-03-15T18:47:47.450Z,5.32
2023-03-15T18:50:15.250Z,5.80
2023-03-15T18:52:41.798Z,5.10
2023-03-15T18:55:10.884Z,5.40
2023-03-15T18:57:37.716Z,5.20
2023-03-15T19:00:13.438Z,5.80
2023-03-15T19:02:45.585Z,5.38
2023-03-15T19:05:13.486Z,5.22
2023-03-15T19:07:40.395Z,5.32
2023-03-15T19:10:10.434Z,5.57
2023-03-15T19:12:37.382Z,5.85
2023-03-15T19:15:05.881Z,4.60
2023-03-15T19:17:32.789Z,5.30
2023-03-15T19:19:59.246Z,5.13
2023-03-15T19:22:28.981Z,4.78
2023-03-15T19:24:55.367Z,5.50
2023-03-15T19:27:21.724Z,6.40
2023-03-15T19:29:48.221Z,6.28
2023-03-15T19:32:14.618Z,6.50
2023-03-15T19:34:41.344Z,6.00
2023-03-15T19:37:08.139Z,5.63
2023-03-15T19:39:34.568Z,5.50
2023-03-15T19:42:00.966Z,6.00
2023-03-15T19:44:27.965Z,6.07
2023-03-15T19:46:54.384Z,5.90
2023-03-15T19:49:20.856Z,6.32
2023-03-15T19:51:47.184Z,6.75
2023-03-15T19:54:13.531Z,6.47
2023-03-15T19:56:39.980Z,6.32
2023-03-15T19:59:06.393Z,7.07
2023-03-15T20:01:33.108Z,6.97
2023-03-15T20:04:00.029Z,6.85
2023-03-15T20:06:26.402Z,6.25
2023-03-15T20:08:53.115Z,6.90
2023-03-15T20:11:25.113Z,6.15
2023-03-15T20:13:52.689Z,6.65
2023-03-15T20:16:20.936Z,6.38
2023-03-15T20:18:48.711Z,7.70
2023-03-15T20:21:15.081Z,7.60
2023-03-15T20:23:42.441Z,7.93
2023-03-15T20:26:11.322Z,6.72
2023-03-15T20:28:41.828Z,6.88
2023-03-15T20:31:10.120Z,7.10
2023-03-15T20:33:36.575Z,7.22
2023-03-15T20:36:03.735Z,7.18
2023-03-15T20:38:30.484Z,7.40
2023-03-15T20:40:57.052Z,6.35
2023-03-15T20:43:23.697Z,6.82
2023-03-15T20:45:54.752Z,6.85
2023-03-15T20:48:23.456Z,6.18
2023-03-15T20:50:49.925Z,7.28
2023-03-15T20:53:16.377Z,6.80
2023-03-15T20:55:43.574Z,6.75
2023-03-15T20:58:11.092Z,6.30
2023-03-15T21:00:40.805Z,6.30
2023-03-15T21:03:10.629Z,5.72
2023-03-15T21:05:38.681Z,6.15
2023-03-15T21:08:08.394Z,5.97
2023-03-15T21:10:35.635Z,6.47
2023-03-15T21:13:09.491Z,6.28
2023-03-15T21:15:45.714Z,6.32
2023-03-15T21:18:13.509Z,5.80
2023-03-15T21:20:40.868Z,5.30
2023-03-15T21:23:07.393Z,5.82
2023-03-15T21:25:33.783Z,5.80
2023-03-15T21:28:00.391Z,5.70
2023-03-15T21:30:26.995Z,5.63
2023-03-15T21:32:53.429Z,5.22
2023-03-15T21:35:21.880Z,6.10
2023-03-15T21:37:48.406Z,5.50
2023-03-15T21:40:14.996Z,5.80
2023-03-15T21:42:43.384Z,5.68
2023-03-15T21:45:11.929Z,5.03
2023-03-15T21:47:38.375Z,5.95
2023-03-15T21:50:06.889Z,5.70
2023-03-15T21:52:33.777Z,5.78
2023-03-15T21:55:01.069Z,6.10
2023-03-15T21:57:27.661Z,5.10
2023-03-15T21:59:54.088Z,5.40
2023-03-15T22:02:20.455Z,5.55
2023-03-15T22:04:46.972Z,5.45
2023-03-15T22:07:13.364Z,5.50
2023-03-15T22:09:41.606Z,5.95
2023-03-15T22:12:08.811Z,5.43
2023-03-15T22:14:35.385Z,5.18
2023-03-15T22:17:04.779Z,6.05
2023-03-15T22:19:31.968Z,5.45
2023-03-15T22:21:58.700Z,5.68
2023-03-15T22:24:25.305Z,5.72
2023-03-15T22:26:52.977Z,5.13
2023-03-15T22:29:19.472Z,6.05
2023-03-15T22:31:45.819Z,5.63
2023-03-15T22:34:12.234Z,5.22
2023-03-15T22:36:38.700Z,5.78
2023-03-15T22:39:09.074Z,5.40
2023-03-15T22:41:35.853Z,5.68
2023-03-15T22:44:02.309Z,5.38
2023-03-15T22:46:34.782Z,5.15
2023-03-15T22:49:02.240Z,5.78
2023-03-15T22:51:28.818Z,5.63
2023-03-15T22:53:55.269Z,5.45
2023-03-15T22:56:21.813Z,5.10
2023-03-15T22:58:48.640Z,5.60
2023-03-15T23:01:15.131Z,5.10
2023-03-15T23:03:41.566Z,4.75
2023-03-15T23:06:07.946Z,4.80
2023-03-15T23:08:34.296Z,5.20
2023-03-15T23:11:00.760Z,5.50
2023-03-15T23:13:27.205Z,4.72
2023-03-15T23:15:54.247Z,4.90
2023-03-15T23:18:21.999Z,5.18
2023-03-15T23:20:48.396Z,4.55
2023-03-15T23:23:14.785Z,4.90
2023-03-15T23:25:41.331Z,4.68
2023-03-15T23:28:07.810Z,4.82
2023-03-15T23:30:36.195Z,4.95
2023-03-15T23:33:03.697Z,4.82
2023-03-15T23:35:31.747Z,5.03
2023-03-15T23:37:58.320Z,4.82
2023-03-15T23:40:25.806Z,5.70
2023-03-15T23:42:58.804Z,5.18
2023-03-15T23:45:27.625Z,4.90
2023-03-15T23:47:54.082Z,5.47
2023-03-15T23:50:20.542Z,4.93
2023-03-15T23:52:47.026Z,5.22
2023-03-15T23:55:13.467Z,5.25
2023-03-15T23:57:40.340Z,5.38
